Macgregor, Canada
Current Conditions -  °F | °C
As of 8:00 PM on Wednesday 22 Oct 2014 (Local Time) from CYPG Reporting Station
Broken Clouds Broken Clouds  
Wind Chill: 54°   Ceiling: 20000
Heat Index: 54°   Visibility: 15mi
Dew Point: 48°   Wind: 9mph
Humidity: 82%   Direction: 180°S
Pressure: 29.73"   Gusts: NA
Location:  49.97°N, 98.77°W
Report Text: CYPG 230100Z 18008KT 15SM FEW160 BKN200 12/09 A2973 RMK AC2CI2SLP072
Loading
Personal Weather Stations






























Interactive Weather Map
Tropical Storm Tracking
New forecast layout! Learn more

10-Day Weather Forecast

Advertisements
Track Severe Weather on mobile